sensor_id;sensor_type;location;lat;lon;timestamp;P1;durP1;ratioP1;P2;durP2;ratioP2
46447;SDS011;32145;50.390;30.778;2024-01-10T00:02:04;6.47;;;2.95;;
46447;SDS011;32145;50.390;30.778;2024-01-10T00:04:58;8.80;;;3.30;;
46447;SDS011;32145;50.390;30.778;2024-01-10T00:07:55;6.30;;;2.88;;
46447;SDS011;32145;50.390;30.778;2024-01-10T00:10:51;5.30;;;2.83;;
46447;SDS011;32145;50.390;30.778;2024-01-10T00:13:46;7.13;;;3.38;;
46447;SDS011;32145;50.390;30.778;2024-01-10T00:16:40;6.03;;;2.47;;
46447;SDS011;32145;50.390;30.778;2024-01-10T00:19:35;8.30;;;3.53;;
46447;SDS011;32145;50.390;30.778;2024-01-10T00:22:30;7.82;;;2.92;;
46447;SDS011;32145;50.390;30.778;2024-01-10T00:25:24;6.10;;;2.70;;
46447;SDS011;32145;50.390;30.778;2024-01-10T00:28:18;5.35;;;2.60;;
46447;SDS011;32145;50.390;30.778;2024-01-10T00:31:15;5.63;;;3.05;;
46447;SDS011;32145;50.390;30.778;2024-01-10T00:34:11;6.32;;;2.35;;
46447;SDS011;32145;50.390;30.778;2024-01-10T00:37:06;5.75;;;2.88;;
46447;SDS011;32145;50.390;30.778;2024-01-10T00:40:01;5.38;;;2.78;;
46447;SDS011;32145;50.390;30.778;2024-01-10T00:42:55;7.07;;;3.72;;
46447;SDS011;32145;50.390;30.778;2024-01-10T00:45:49;7.03;;;2.95;;
46447;SDS011;32145;50.390;30.778;2024-01-10T00:48:45;6.43;;;3.00;;
46447;SDS011;32145;50.390;30.778;2024-01-10T00:51:40;7.10;;;3.17;;
46447;SDS011;32145;50.390;30.778;2024-01-10T00:54:37;10.50;;;3.63;;
46447;SDS011;32145;50.390;30.778;2024-01-10T00:57:34;7.35;;;3.33;;
46447;SDS011;32145;50.390;30.778;2024-01-10T01:00:31;8.18;;;3.85;;
46447;SDS011;32145;50.390;30.778;2024-01-10T01:03:28;7.75;;;3.53;;
46447;SDS011;32145;50.390;30.778;2024-01-10T01:06:24;6.82;;;3.58;;
46447;SDS011;32145;50.390;30.778;2024-01-10T01:09:20;6.65;;;3.47;;
46447;SDS011;32145;50.390;30.778;2024-01-10T01:12:18;9.50;;;3.60;;
46447;SDS011;32145;50.390;30.778;2024-01-10T01:15:14;8.68;;;3.92;;
46447;SDS011;32145;50.390;30.778;2024-01-10T01:18:11;6.07;;;3.33;;
46447;SDS011;32145;50.390;30.778;2024-01-10T01:21:05;6.93;;;3.40;;
46447;SDS011;32145;50.390;30.778;2024-01-10T01:23:59;6.25;;;3.30;;
46447;SDS011;32145;50.390;30.778;2024-01-10T01:26:55;8.00;;;3.70;;
46447;SDS011;32145;50.390;30.778;2024-01-10T01:29:53;6.30;;;2.42;;
46447;SDS011;32145;50.390;30.778;2024-01-10T01:32:48;5.70;;;3.17;;
46447;SDS011;32145;50.390;30.778;2024-01-10T01:35:42;7.70;;;3.55;;
46447;SDS011;32145;50.390;30.778;2024-01-10T01:38:36;7.45;;;3.78;;
46447;SDS011;32145;50.390;30.778;2024-01-10T01:41:30;8.85;;;3.55;;
46447;SDS011;32145;50.390;30.778;2024-01-10T01:44:27;17.10;;;5.47;;
46447;SDS011;32145;50.390;30.778;2024-01-10T01:47:24;13.65;;;5.30;;
46447;SDS011;32145;50.390;30.778;2024-01-10T01:50:21;5.13;;;2.65;;
46447;SDS011;32145;50.390;30.778;2024-01-10T01:53:17;5.25;;;2.42;;
46447;SDS011;32145;50.390;30.778;2024-01-10T01:56:14;7.18;;;3.50;;
46447;SDS011;32145;50.390;30.778;2024-01-10T01:59:11;8.07;;;2.95;;
46447;SDS011;32145;50.390;30.778;2024-01-10T02:02:06;7.90;;;3.88;;
46447;SDS011;32145;50.390;30.778;2024-01-10T02:05:03;4.78;;;2.35;;
46447;SDS011;32145;50.390;30.778;2024-01-10T02:07:57;6.28;;;2.90;;
46447;SDS011;32145;50.390;30.778;2024-01-10T02:10:52;7.55;;;3.55;;
46447;SDS011;32145;50.390;30.778;2024-01-10T02:13:46;7.85;;;4.00;;
46447;SDS011;32145;50.390;30.778;2024-01-10T02:16:41;7.35;;;4.00;;
46447;SDS011;32145;50.390;30.778;2024-01-10T02:19:36;9.57;;;3.90;;
46447;SDS011;32145;50.390;30.778;2024-01-10T02:22:31;5.78;;;3.08;;
46447;SDS011;32145;50.390;30.778;2024-01-10T02:25:27;8.30;;;4.43;;
46447;SDS011;32145;50.390;30.778;2024-01-10T02:28:22;5.50;;;2.78;;
46447;SDS011;32145;50.390;30.778;2024-01-10T02:31:16;5.35;;;3.00;;
46447;SDS011;32145;50.390;30.778;2024-01-10T02:34:10;4.78;;;2.38;;
46447;SDS011;32145;50.390;30.778;2024-01-10T02:37:04;8.52;;;4.25;;
46447;SDS011;32145;50.390;30.778;2024-01-10T02:39:58;7.85;;;4.03;;
46447;SDS011;32145;50.390;30.778;2024-01-10T02:42:54;7.18;;;3.67;;
46447;SDS011;32145;50.390;30.778;2024-01-10T02:45:49;8.18;;;4.20;;
46447;SDS011;32145;50.390;30.778;2024-01-10T02:48:43;8.88;;;4.13;;
46447;SDS011;32145;50.390;30.778;2024-01-10T02:51:39;8.82;;;4.20;;
46447;SDS011;32145;50.390;30.778;2024-01-10T02:54:36;8.27;;;4.32;;
46447;SDS011;32145;50.390;30.778;2024-01-10T02:57:32;8.38;;;3.78;;
46447;SDS011;32145;50.390;30.778;2024-01-10T03:00:29;7.15;;;3.90;;
46447;SDS011;32145;50.390;30.778;2024-01-10T03:03:26;11.68;;;4.93;;
46447;SDS011;32145;50.390;30.778;2024-01-10T03:06:22;10.20;;;4.28;;
46447;SDS011;32145;50.390;30.778;2024-01-10T03:09:18;9.13;;;4.50;;
46447;SDS011;32145;50.390;30.778;2024-01-10T03:12:14;12.07;;;4.75;;
46447;SDS011;32145;50.390;30.778;2024-01-10T03:15:10;9.90;;;4.10;;
46447;SDS011;32145;50.390;30.778;2024-01-10T03:18:08;7.63;;;3.55;;
46447;SDS011;32145;50.390;30.778;2024-01-10T03:21:05;5.97;;;2.92;;
46447;SDS011;32145;50.390;30.778;2024-01-10T03:24:01;9.32;;;4.45;;
46447;SDS011;32145;50.390;30.778;2024-01-10T03:26:58;10.27;;;3.90;;
46447;SDS011;32145;50.390;30.778;2024-01-10T03:29:54;7.25;;;3.40;;
46447;SDS011;32145;50.390;30.778;2024-01-10T03:32:50;8.38;;;4.25;;
46447;SDS011;32145;50.390;30.778;2024-01-10T03:35:48;4.72;;;2.40;;
46447;SDS011;32145;50.390;30.778;2024-01-10T03:38:44;7.70;;;4.22;;
46447;SDS011;32145;50.390;30.778;2024-01-10T03:41:41;8.82;;;4.57;;
46447;SDS011;32145;50.390;30.778;2024-01-10T03:44:37;8.32;;;3.83;;
46447;SDS011;32145;50.390;30.778;2024-01-10T03:47:33;9.10;;;4.18;;
46447;SDS011;32145;50.390;30.778;2024-01-10T03:50:30;8.43;;;3.53;;
46447;SDS011;32145;50.390;30.778;2024-01-10T03:53:27;8.18;;;3.67;;
46447;SDS011;32145;50.390;30.778;2024-01-10T03:56:24;10.15;;;4.43;;
46447;SDS011;32145;50.390;30.778;2024-01-10T03:59:20;6.70;;;2.70;;
46447;SDS011;32145;50.390;30.778;2024-01-10T04:02:17;7.95;;;3.95;;
46447;SDS011;32145;50.390;30.778;2024-01-10T04:05:13;13.15;;;6.13;;
46447;SDS011;32145;50.390;30.778;2024-01-10T04:08:07;12.63;;;5.70;;
46447;SDS011;32145;50.390;30.778;2024-01-10T04:11:03;13.30;;;5.15;;
46447;SDS011;32145;50.390;30.778;2024-01-10T04:13:57;15.07;;;5.60;;
46447;SDS011;32145;50.390;30.778;2024-01-10T04:16:52;7.55;;;4.00;;
46447;SDS011;32145;50.390;30.778;2024-01-10T04:19:47;10.10;;;5.13;;
46447;SDS011;32145;50.390;30.778;2024-01-10T04:22:41;12.63;;;5.72;;
46447;SDS011;32145;50.390;30.778;2024-01-10T04:25:35;9.60;;;5.10;;
46447;SDS011;32145;50.390;30.778;2024-01-10T04:28:31;8.73;;;4.50;;
46447;SDS011;32145;50.390;30.778;2024-01-10T04:31:25;9.68;;;5.10;;
46447;SDS011;32145;50.390;30.778;2024-01-10T04:34:19;8.60;;;3.92;;
46447;SDS011;32145;50.390;30.778;2024-01-10T04:37:14;7.03;;;3.88;;
46447;SDS011;32145;50.390;30.778;2024-01-10T04:40:08;10.63;;;5.20;;
46447;SDS011;32145;50.390;30.778;2024-01-10T04:43:03;7.80;;;3.85;;
46447;SDS011;32145;50.390;30.778;2024-01-10T04:45:59;11.27;;;5.30;;
46447;SDS011;32145;50.390;30.778;2024-01-10T04:48:53;7.78;;;4.05;;
46447;SDS011;32145;50.390;30.778;2024-01-10T04:51:48;12.80;;;5.80;;
46447;SDS011;32145;50.390;30.778;2024-01-10T04:54:42;13.30;;;5.80;;
46447;SDS011;32145;50.390;30.778;2024-01-10T04:57:36;10.73;;;3.92;;
46447;SDS011;32145;50.390;30.778;2024-01-10T05:00:30;11.05;;;5.30;;
46447;SDS011;32145;50.390;30.778;2024-01-10T05:03:26;10.82;;;5.63;;
46447;SDS011;32145;50.390;30.778;2024-01-10T05:06:20;15.70;;;6.53;;
46447;SDS011;32145;50.390;30.778;2024-01-10T05:09:14;13.43;;;5.20;;
46447;SDS011;32145;50.390;30.778;2024-01-10T05:12:09;11.23;;;5.75;;
46447;SDS011;32145;50.390;30.778;2024-01-10T05:15:03;12.05;;;5.78;;
46447;SDS011;32145;50.390;30.778;2024-01-10T05:17:58;8.95;;;4.82;;
46447;SDS011;32145;50.390;30.778;2024-01-10T05:20:54;12.02;;;4.72;;
46447;SDS011;32145;50.390;30.778;2024-01-10T05:23:48;9.45;;;4.68;;
46447;SDS011;32145;50.390;30.778;2024-01-10T05:26:43;11.35;;;5.60;;
46447;SDS011;32145;50.390;30.778;2024-01-10T05:29:37;9.18;;;4.50;;
46447;SDS011;32145;50.390;30.778;2024-01-10T05:32:31;9.10;;;4.78;;
46447;SDS011;32145;50.390;30.778;2024-01-10T05:35:27;9.20;;;4.40;;
46447;SDS011;32145;50.390;30.778;2024-01-10T05:38:25;9.95;;;4.68;;
46447;SDS011;32145;50.390;30.778;2024-01-10T05:41:19;10.27;;;4.97;;
46447;SDS011;32145;50.390;30.778;2024-01-10T05:44:13;9.45;;;4.82;;
46447;SDS011;32145;50.390;30.778;2024-01-10T05:47:07;10.05;;;3.50;;
46447;SDS011;32145;50.390;30.778;2024-01-10T05:50:02;12.82;;;6.03;;
46447;SDS011;32145;50.390;30.778;2024-01-10T05:52:57;11.88;;;5.20;;
46447;SDS011;32145;50.390;30.778;2024-01-10T05:55:52;11.90;;;5.57;;
46447;SDS011;32145;50.390;30.778;2024-01-10T05:58:47;9.77;;;5.40;;
46447;SDS011;32145;50.390;30.778;2024-01-10T06:01:41;10.68;;;5.63;;
46447;SDS011;32145;50.390;30.778;2024-01-10T06:04:35;10.65;;;5.00;;
46447;SDS011;32145;50.390;30.778;2024-01-10T06:07:29;8.55;;;4.45;;
46447;SDS011;32145;50.390;30.778;2024-01-10T06:10:23;10.18;;;5.43;;
46447;SDS011;32145;50.390;30.778;2024-01-10T06:13:19;12.18;;;5.88;;
46447;SDS011;32145;50.390;30.778;2024-01-10T06:16:13;11.98;;;5.82;;
46447;SDS011;32145;50.390;30.778;2024-01-10T06:19:07;12.20;;;6.20;;
46447;SDS011;32145;50.390;30.778;2024-01-10T06:22:02;12.20;;;6.13;;
46447;SDS011;32145;50.390;30.778;2024-01-10T06:24:59;11.70;;;6.13;;
46447;SDS011;32145;50.390;30.778;2024-01-10T06:27:55;11.15;;;5.93;;
46447;SDS011;32145;50.390;30.778;2024-01-10T06:30:51;14.65;;;6.50;;
46447;SDS011;32145;50.390;30.778;2024-01-10T06:33:45;12.57;;;5.80;;
46447;SDS011;32145;50.390;30.778;2024-01-10T06:36:40;13.07;;;5.88;;
46447;SDS011;32145;50.390;30.778;2024-01-10T06:39:34;12.57;;;6.72;;
46447;SDS011;32145;50.390;30.778;2024-01-10T06:42:28;13.18;;;6.00;;
46447;SDS011;32145;50.390;30.778;2024-01-10T06:45:22;13.55;;;6.80;;
46447;SDS011;32145;50.390;30.778;2024-01-10T06:48:18;14.45;;;6.93;;
46447;SDS011;32145;50.390;30.778;2024-01-10T06:51:12;10.00;;;4.35;;
46447;SDS011;32145;50.390;30.778;2024-01-10T06:54:09;13.48;;;6.55;;
46447;SDS011;32145;50.390;30.778;2024-01-10T06:57:05;12.70;;;6.05;;
46447;SDS011;32145;50.390;30.778;2024-01-10T07:00:02;13.02;;;6.50;;
46447;SDS011;32145;50.390;30.778;2024-01-10T07:03:00;14.60;;;7.10;;
46447;SDS011;32145;50.390;30.778;2024-01-10T07:05:46;33.95;;;12.23;;
46447;SDS011;32145;50.390;30.778;2024-01-10T07:08:40;14.85;;;6.65;;
46447;SDS011;32145;50.390;30.778;2024-01-10T07:11:34;11.63;;;5.43;;
46447;SDS011;32145;50.390;30.778;2024-01-10T07:14:19;15.10;;;7.47;;
46447;SDS011;32145;50.390;30.778;2024-01-10T07:17:03;16.08;;;7.65;;
46447;SDS011;32145;50.390;30.778;2024-01-10T07:19:48;11.38;;;5.07;;
46447;SDS011;32145;50.390;30.778;2024-01-10T07:22:34;14.70;;;5.70;;
46447;SDS011;32145;50.390;30.778;2024-01-10T07:25:30;11.75;;;5.57;;
46447;SDS011;32145;50.390;30.778;2024-01-10T07:28:15;15.55;;;7.90;;
46447;SDS011;32145;50.390;30.778;2024-01-10T07:31:11;14.60;;;8.00;;
46447;SDS011;32145;50.390;30.778;2024-01-10T07:34:05;16.67;;;7.47;;
46447;SDS011;32145;50.390;30.778;2024-01-10T07:36:50;16.88;;;8.98;;
46447;SDS011;32145;50.390;30.778;2024-01-10T07:39:35;19.08;;;9.45;;
46447;SDS011;32145;50.390;30.778;2024-01-10T07:42:31;20.30;;;10.27;;
46447;SDS011;32145;50.390;30.778;2024-01-10T07:45:16;17.10;;;8.95;;
46447;SDS011;32145;50.390;30.778;2024-01-10T07:48:10;18.70;;;9.18;;
46447;SDS011;32145;50.390;30.778;2024-01-10T07:51:04;17.35;;;8.52;;
46447;SDS011;32145;50.390;30.778;2024-01-10T07:53:59;17.40;;;9.13;;
46447;SDS011;32145;50.390;30.778;2024-01-10T07:56:54;20.13;;;9.13;;
46447;SDS011;32145;50.390;30.778;2024-01-10T07:59:38;17.55;;;8.32;;
46447;SDS011;32145;50.390;30.778;2024-01-10T08:02:32;17.52;;;8.55;;
46447;SDS011;32145;50.390;30.778;2024-01-10T08:05:17;15.15;;;7.13;;
46447;SDS011;32145;50.390;30.778;2024-01-10T08:08:11;19.95;;;10.45;;
46447;SDS011;32145;50.390;30.778;2024-01-10T08:10:56;21.52;;;10.32;;
46447;SDS011;32145;50.390;30.778;2024-01-10T08:13:47;16.35;;;8.73;;
46447;SDS011;32145;50.390;30.778;2024-01-10T08:16:31;23.30;;;10.65;;
46447;SDS011;32145;50.390;30.778;2024-01-10T08:19:21;19.20;;;8.75;;
46447;SDS011;32145;50.390;30.778;2024-01-10T08:22:16;23.40;;;11.02;;
46447;SDS011;32145;50.390;30.778;2024-01-10T08:25:00;22.00;;;10.43;;
46447;SDS011;32145;50.390;30.778;2024-01-10T08:27:57;20.75;;;10.27;;
46447;SDS011;32145;50.390;30.778;2024-01-10T08:30:55;22.40;;;11.05;;
46447;SDS011;32145;50.390;30.778;2024-01-10T08:33:51;20.35;;;10.30;;
46447;SDS011;32145;50.390;30.778;2024-01-10T08:36:36;19.20;;;9.68;;
46447;SDS011;32145;50.390;30.778;2024-01-10T08:39:20;19.52;;;9.88;;
46447;SDS011;32145;50.390;30.778;2024-01-10T08:42:16;18.40;;;9.13;;
46447;SDS011;32145;50.390;30.778;2024-01-10T08:45:13;18.48;;;9.88;;
46447;SDS011;32145;50.390;30.778;2024-01-10T08:47:58;21.95;;;10.57;;
46447;SDS011;32145;50.390;30.778;2024-01-10T08:50:43;22.13;;;9.30;;
46447;SDS011;32145;50.390;30.778;2024-01-10T08:53:39;21.02;;;10.98;;
46447;SDS011;32145;50.390;30.778;2024-01-10T08:56:24;23.55;;;10.77;;
46447;SDS011;32145;50.390;30.778;2024-01-10T08:59:18;22.50;;;10.55;;
46447;SDS011;32145;50.390;30.778;2024-01-10T09:02:02;21.13;;;10.70;;
46447;SDS011;32145;50.390;30.778;2024-01-10T09:04:48;26.42;;;11.90;;
46447;SDS011;32145;50.390;30.778;2024-01-10T09:07:42;24.38;;;12.00;;
46447;SDS011;32145;50.390;30.778;2024-01-10T09:10:26;23.48;;;11.30;;
46447;SDS011;32145;50.390;30.778;2024-01-10T09:13:23;23.15;;;11.77;;
46447;SDS011;32145;50.390;30.778;2024-01-10T09:16:13;17.45;;;7.35;;
46447;SDS011;32145;50.390;30.778;2024-01-10T09:19:07;26.05;;;10.95;;
46447;SDS011;32145;50.390;30.778;2024-01-10T09:22:03;26.60;;;11.65;;
46447;SDS011;32145;50.390;30.778;2024-01-10T09:24:47;28.75;;;13.18;;
46447;SDS011;32145;50.390;30.778;2024-01-10T09:27:43;26.05;;;11.73;;
46447;SDS011;32145;50.390;30.778;2024-01-10T09:30:28;28.05;;;12.93;;
46447;SDS011;32145;50.390;30.778;2024-01-10T09:33:22;27.50;;;12.55;;
46447;SDS011;32145;50.390;30.778;2024-01-10T09:36:06;32.63;;;16.00;;
46447;SDS011;32145;50.390;30.778;2024-01-10T09:38:52;28.33;;;14.10;;
46447;SDS011;32145;50.390;30.778;2024-01-10T09:41:47;21.55;;;9.98;;
46447;SDS011;32145;50.390;30.778;2024-01-10T09:44:32;29.33;;;13.45;;
46447;SDS011;32145;50.390;30.778;2024-01-10T09:47:17;27.90;;;12.35;;
46447;SDS011;32145;50.390;30.778;2024-01-10T09:50:03;25.50;;;12.30;;
46447;SDS011;32145;50.390;30.778;2024-01-10T09:53:01;26.17;;;12.48;;
46447;SDS011;32145;50.390;30.778;2024-01-10T09:55:51;27.35;;;12.52;;
46447;SDS011;32145;50.390;30.778;2024-01-10T09:58:35;28.05;;;13.10;;
46447;SDS011;32145;50.390;30.778;2024-01-10T10:01:29;29.65;;;14.63;;
46447;SDS011;32145;50.390;30.778;2024-01-10T10:04:14;28.15;;;13.45;;
46447;SDS011;32145;50.390;30.778;2024-01-10T10:07:13;19.60;;;9.13;;
46447;SDS011;32145;50.390;30.778;2024-01-10T10:10:04;27.45;;;13.38;;
46447;SDS011;32145;50.390;30.778;2024-01-10T10:12:51;27.50;;;13.30;;
46447;SDS011;32145;50.390;30.778;2024-01-10T10:15:35;29.67;;;13.88;;
46447;SDS011;32145;50.390;30.778;2024-01-10T10:18:30;26.23;;;12.38;;
46447;SDS011;32145;50.390;30.778;2024-01-10T10:21:25;29.52;;;14.27;;
46447;SDS011;32145;50.390;30.778;2024-01-10T10:24:09;30.67;;;14.55;;
46447;SDS011;32145;50.390;30.778;2024-01-10T10:27:07;31.60;;;15.65;;
46447;SDS011;32145;50.390;30.778;2024-01-10T10:29:53;37.83;;;15.55;;
46447;SDS011;32145;50.390;30.778;2024-01-10T10:32:47;28.92;;;13.80;;
46447;SDS011;32145;50.390;30.778;2024-01-10T10:35:44;29.98;;;15.00;;
46447;SDS011;32145;50.390;30.778;2024-01-10T10:38:35;31.25;;;14.93;;
46447;SDS011;32145;50.390;30.778;2024-01-10T10:41:19;31.48;;;15.40;;
46447;SDS011;32145;50.390;30.778;2024-01-10T10:44:04;28.90;;;11.95;;
46447;SDS011;32145;50.390;30.778;2024-01-10T10:46:53;29.77;;;13.27;;
46447;SDS011;32145;50.390;30.778;2024-01-10T10:49:39;27.45;;;13.32;;
46447;SDS011;32145;50.390;30.778;2024-01-10T10:52:30;28.73;;;14.32;;
46447;SDS011;32145;50.390;30.778;2024-01-10T10:55:16;31.65;;;14.07;;
46447;SDS011;32145;50.390;30.778;2024-01-10T10:58:11;30.83;;;14.68;;
46447;SDS011;32145;50.390;30.778;2024-01-10T11:00:56;28.42;;;14.57;;
46447;SDS011;32145;50.390;30.778;2024-01-10T11:03:43;25.80;;;12.43;;
46447;SDS011;32145;50.390;30.778;2024-01-10T11:06:37;27.27;;;12.60;;
46447;SDS011;32145;50.390;30.778;2024-01-10T11:09:22;33.25;;;16.88;;
46447;SDS011;32145;50.390;30.778;2024-01-10T11:12:13;33.22;;;16.00;;
46447;SDS011;32145;50.390;30.778;2024-01-10T11:18:19;28.42;;;15.27;;
46447;SDS011;32145;50.390;30.778;2024-01-10T11:21:37;30.73;;;14.02;;
46447;SDS011;32145;50.390;30.778;2024-01-10T11:24:30;31.08;;;14.77;;
46447;SDS011;32145;50.390;30.778;2024-01-10T11:27:15;37.25;;;17.67;;
46447;SDS011;32145;50.390;30.778;2024-01-10T11:30:12;33.15;;;16.88;;
46447;SDS011;32145;50.390;30.778;2024-01-10T11:33:18;32.45;;;15.45;;
46447;SDS011;32145;50.390;30.778;2024-01-10T11:36:12;33.90;;;16.48;;
46447;SDS011;32145;50.390;30.778;2024-01-10T11:38:59;33.75;;;14.68;;
46447;SDS011;32145;50.390;30.778;2024-01-10T11:41:56;30.02;;;15.70;;
46447;SDS011;32145;50.390;30.778;2024-01-10T11:44:48;33.35;;;15.63;;
46447;SDS011;32145;50.390;30.778;2024-01-10T11:47:44;28.60;;;14.35;;
46447;SDS011;32145;50.390;30.778;2024-01-10T11:50:29;31.00;;;14.98;;
46447;SDS011;32145;50.390;30.778;2024-01-10T11:53:13;32.25;;;16.30;;
46447;SDS011;32145;50.390;30.778;2024-01-10T11:56:39;33.15;;;16.23;;
46447;SDS011;32145;50.390;30.778;2024-01-10T11:59:23;29.50;;;15.85;;
46447;SDS011;32145;50.390;30.778;2024-01-10T12:02:08;30.92;;;16.08;;
46447;SDS011;32145;50.390;30.778;2024-01-10T12:04:58;36.28;;;16.98;;
46447;SDS011;32145;50.390;30.778;2024-01-10T12:07:52;35.55;;;16.75;;
46447;SDS011;32145;50.390;30.778;2024-01-10T12:10:37;30.70;;;16.40;;
46447;SDS011;32145;50.390;30.778;2024-01-10T12:13:34;29.88;;;15.18;;
46447;SDS011;32145;50.390;30.778;2024-01-10T12:16:19;34.88;;;17.95;;
46447;SDS011;32145;50.390;30.778;2024-01-10T12:19:13;34.72;;;17.25;;
46447;SDS011;32145;50.390;30.778;2024-01-10T12:21:57;27.88;;;13.85;;
46447;SDS011;32145;50.390;30.778;2024-01-10T12:24:52;29.92;;;15.07;;
46447;SDS011;32145;50.390;30.778;2024-01-10T12:27:48;25.88;;;12.88;;
46447;SDS011;32145;50.390;30.778;2024-01-10T12:30:45;28.20;;;13.60;;
46447;SDS011;32145;50.390;30.778;2024-01-10T12:33:31;31.17;;;14.90;;
46447;SDS011;32145;50.390;30.778;2024-01-10T12:36:19;27.10;;;12.70;;
46447;SDS011;32145;50.390;30.778;2024-01-10T12:39:10;28.75;;;14.10;;
46447;SDS011;32145;50.390;30.778;2024-01-10T12:41:56;28.92;;;13.70;;
46447;SDS011;32145;50.390;30.778;2024-01-10T12:44:53;27.33;;;14.27;;
46447;SDS011;32145;50.390;30.778;2024-01-10T12:47:39;30.98;;;15.70;;
46447;SDS011;32145;50.390;30.778;2024-01-10T12:50:23;30.23;;;14.70;;
46447;SDS011;32145;50.390;30.778;2024-01-10T12:53:14;22.48;;;9.90;;
46447;SDS011;32145;50.390;30.778;2024-01-10T12:56:05;29.95;;;14.15;;
46447;SDS011;32145;50.390;30.778;2024-01-10T12:58:50;30.13;;;14.88;;
46447;SDS011;32145;50.390;30.778;2024-01-10T13:01:34;32.40;;;15.13;;
46447;SDS011;32145;50.390;30.778;2024-01-10T13:04:20;19.83;;;9.35;;
46447;SDS011;32145;50.390;30.778;2024-01-10T13:07:17;34.75;;;15.48;;
46447;SDS011;32145;50.390;30.778;2024-01-10T13:10:01;22.30;;;11.55;;
46447;SDS011;32145;50.390;30.778;2024-01-10T13:12:55;28.90;;;14.73;;
46447;SDS011;32145;50.390;30.778;2024-01-10T13:15:50;25.52;;;12.52;;
46447;SDS011;32145;50.390;30.778;2024-01-10T13:18:34;30.90;;;15.50;;
46447;SDS011;32145;50.390;30.778;2024-01-10T13:21:30;30.98;;;15.57;;
46447;SDS011;32145;50.390;30.778;2024-01-10T13:24:14;26.42;;;13.30;;
46447;SDS011;32145;50.390;30.778;2024-01-10T13:27:08;29.83;;;13.77;;
46447;SDS011;32145;50.390;30.778;2024-01-10T13:29:56;29.30;;;14.13;;
46447;SDS011;32145;50.390;30.778;2024-01-10T13:32:54;26.58;;;13.60;;
46447;SDS011;32145;50.390;30.778;2024-01-10T13:35:38;24.10;;;12.20;;
46447;SDS011;32145;50.390;30.778;2024-01-10T13:38:30;30.65;;;13.68;;
46447;SDS011;32145;50.390;30.778;2024-01-10T13:41:25;28.58;;;13.40;;
46447;SDS011;32145;50.390;30.778;2024-01-10T13:44:09;29.98;;;15.02;;
46447;SDS011;32145;50.390;30.778;2024-01-10T13:46:58;25.20;;;12.18;;
46447;SDS011;32145;50.390;30.778;2024-01-10T13:49:54;26.88;;;13.65;;
46447;SDS011;32145;50.390;30.778;2024-01-10T13:52:50;28.77;;;14.25;;
46447;SDS011;32145;50.390;30.778;2024-01-10T13:55:48;27.52;;;14.68;;
46447;SDS011;32145;50.390;30.778;2024-01-10T13:58:44;29.92;;;15.10;;
46447;SDS011;32145;50.390;30.778;2024-01-10T14:01:28;28.63;;;15.30;;
46447;SDS011;32145;50.390;30.778;2024-01-10T14:04:22;28.05;;;11.45;;
46447;SDS011;32145;50.390;30.778;2024-01-10T14:07:16;27.67;;;13.90;;
46447;SDS011;32145;50.390;30.778;2024-01-10T14:10:12;30.05;;;15.45;;
46447;SDS011;32145;50.390;30.778;2024-01-10T14:13:10;30.23;;;16.00;;
46447;SDS011;32145;50.390;30.778;2024-01-10T14:15:54;38.83;;;20.30;;
46447;SDS011;32145;50.390;30.778;2024-01-10T14:18:48;59.25;;;31.67;;
46447;SDS011;32145;50.390;30.778;2024-01-10T14:21:32;42.00;;;21.90;;
46447;SDS011;32145;50.390;30.778;2024-01-10T14:24:28;43.60;;;21.98;;
46447;SDS011;32145;50.390;30.778;2024-01-10T14:27:12;43.33;;;22.65;;
46447;SDS011;32145;50.390;30.778;2024-01-10T14:30:09;37.95;;;20.60;;
46447;SDS011;32145;50.390;30.778;2024-01-10T14:32:59;40.72;;;20.42;;
46447;SDS011;32145;50.390;30.778;2024-01-10T14:35:44;29.88;;;13.10;;
46447;SDS011;32145;50.390;30.778;2024-01-10T14:38:40;51.95;;;24.08;;
46447;SDS011;32145;50.390;30.778;2024-01-10T14:41:24;45.30;;;20.95;;
46447;SDS011;32145;50.390;30.778;2024-01-10T14:44:18;38.67;;;19.85;;
46447;SDS011;32145;50.390;30.778;2024-01-10T14:47:16;42.90;;;20.90;;
46447;SDS011;32145;50.390;30.778;2024-01-10T14:50:10;36.33;;;19.10;;
46447;SDS011;32145;50.390;30.778;2024-01-10T14:53:05;42.25;;;20.42;;
46447;SDS011;32145;50.390;30.778;2024-01-10T14:55:59;35.47;;;18.55;;
46447;SDS011;32145;50.390;30.778;2024-01-10T14:58:43;37.38;;;19.00;;
46447;SDS011;32145;50.390;30.778;2024-01-10T15:01:43;59.38;;;24.42;;
46447;SDS011;32145;50.390;30.778;2024-01-10T15:04:41;50.20;;;20.85;;
46447;SDS011;32145;50.390;30.778;2024-01-10T15:07:37;39.75;;;18.17;;
46447;SDS011;32145;50.390;30.778;2024-01-10T15:10:34;40.47;;;18.95;;
46447;SDS011;32145;50.390;30.778;2024-01-10T15:13:31;28.98;;;13.82;;
46447;SDS011;32145;50.390;30.778;2024-01-10T15:16:27;36.63;;;17.42;;
46447;SDS011;32145;50.390;30.778;2024-01-10T15:19:23;56.85;;;23.08;;
46447;SDS011;32145;50.390;30.778;2024-01-10T15:22:21;51.80;;;20.30;;
46447;SDS011;32145;50.390;30.778;2024-01-10T15:25:17;39.20;;;17.67;;
46447;SDS011;32145;50.390;30.778;2024-01-10T15:28:14;34.00;;;17.05;;
46447;SDS011;32145;50.390;30.778;2024-01-10T15:31:13;30.83;;;14.25;;
46447;SDS011;32145;50.390;30.778;2024-01-10T15:34:10;35.72;;;18.13;;
46447;SDS011;32145;50.390;30.778;2024-01-10T15:37:06;38.60;;;18.70;;
46447;SDS011;32145;50.390;30.778;2024-01-10T15:40:04;32.72;;;17.17;;
46447;SDS011;32145;50.390;30.778;2024-01-10T15:43:03;37.30;;;19.33;;
46447;SDS011;32145;50.390;30.778;2024-01-10T15:45:59;41.28;;;20.15;;
46447;SDS011;32145;50.390;30.778;2024-01-10T15:48:56;38.78;;;18.60;;
46447;SDS011;32145;50.390;30.778;2024-01-10T15:51:52;40.20;;;18.92;;
46447;SDS011;32145;50.390;30.778;2024-01-10T15:54:48;35.00;;;17.75;;
46447;SDS011;32145;50.390;30.778;2024-01-10T15:57:44;36.13;;;18.45;;
46447;SDS011;32145;50.390;30.778;2024-01-10T16:00:38;38.88;;;18.15;;
46447;SDS011;32145;50.390;30.778;2024-01-10T16:03:32;37.53;;;17.67;;
46447;SDS011;32145;50.390;30.778;2024-01-10T16:06:27;39.75;;;18.88;;
46447;SDS011;32145;50.390;30.778;2024-01-10T16:09:21;34.20;;;17.73;;
46447;SDS011;32145;50.390;30.778;2024-01-10T16:12:15;31.02;;;17.25;;
46447;SDS011;32145;50.390;30.778;2024-01-10T16:15:11;36.05;;;16.42;;
46447;SDS011;32145;50.390;30.778;2024-01-10T16:18:05;34.60;;;17.02;;
46447;SDS011;32145;50.390;30.778;2024-01-10T16:21:00;32.60;;;17.05;;
46447;SDS011;32145;50.390;30.778;2024-01-10T16:23:54;35.88;;;18.67;;
46447;SDS011;32145;50.390;30.778;2024-01-10T16:26:49;32.15;;;15.23;;
46447;SDS011;32145;50.390;30.778;2024-01-10T16:29:43;30.50;;;15.98;;
46447;SDS011;32145;50.390;30.778;2024-01-10T16:32:39;29.27;;;14.55;;
46447;SDS011;32145;50.390;30.778;2024-01-10T16:35:34;32.45;;;16.80;;
46447;SDS011;32145;50.390;30.778;2024-01-10T16:38:28;32.80;;;17.83;;
46447;SDS011;32145;50.390;30.778;2024-01-10T16:41:22;34.30;;;17.33;;
46447;SDS011;32145;50.390;30.778;2024-01-10T16:44:16;38.70;;;18.73;;
46447;SDS011;32145;50.390;30.778;2024-01-10T16:47:10;44.63;;;19.42;;
46447;SDS011;32145;50.390;30.778;2024-01-10T16:50:07;38.00;;;18.60;;
46447;SDS011;32145;50.390;30.778;2024-01-10T16:53:02;31.98;;;16.25;;